Time;durP1;ratioP1;P1;durP2;ratioP2;P2;SDS_P1;SDS_P2;PMS_P1;PMS_P2;Temp;Humidity;BMP_temperature;BMP_pressure;BME280_temperature;BME280_humidity;BME280_pressure;Samples;Min_cycle;Max_cycle;Signal;HPM_P1;HPM_P2
2022/12/20 00:01:25;;;;;;;;;3.00;3.00;;;;;20.15;35.38;100972.84;5065194;28;45339;-42
2022/12/20 00:03:52;;;;;;;;;6.00;3.25;;;;;20.12;35.40;100984.41;5063678;28;45306;-43
2022/12/20 00:06:18;;;;;;;;;3.00;3.00;;;;;20.13;35.80;100977.34;5063287;28;45141;-41
2022/12/20 00:08:44;;;;;;;;;4.75;3.00;;;;;20.13;35.44;100972.06;5064747;28;45343;-41
2022/12/20 00:11:10;;;;;;;;;3.00;2.25;;;;;20.11;35.65;100968.69;5066987;28;46144;-41
2022/12/20 00:13:36;;;;;;;;;3.75;3.25;;;;;20.11;35.59;100968.69;5066271;28;45101;-41
2022/12/20 00:16:05;;;;;;;;;3.00;3.00;;;;;20.12;35.76;100965.13;5061393;28;45528;-45
2022/12/20 00:18:30;;;;;;;;;4.50;3.00;;;;;20.08;35.42;100954.75;5059541;28;45395;-41
2022/12/20 00:20:59;;;;;;;;;4.25;3.50;;;;;20.07;35.85;100958.31;5061958;28;45266;-41
2022/12/20 00:23:24;;;;;;;;;4.25;3.00;;;;;20.07;35.85;100953.06;5059175;28;45560;-44
2022/12/20 00:25:50;;;;;;;;;2.00;2.00;;;;;20.07;35.86;100953.06;5058951;28;45355;-41
2022/12/20 00:28:15;;;;;;;;;4.00;4.00;;;;;20.06;35.89;100948.72;5064918;28;45320;-40
2022/12/20 00:30:40;;;;;;;;;2.00;2.00;;;;;20.05;36.01;100947.03;5060528;28;45458;-41
2022/12/20 00:33:06;;;;;;;;;2.67;2.67;;;;;20.05;35.70;100954.06;5059990;28;50854;-43
2022/12/20 00:35:31;;;;;;;;;3.50;3.25;;;;;20.05;35.52;100962.81;5077701;28;45766;-42
2022/12/20 00:37:56;;;;;;;;;4.67;3.33;;;;;20.03;35.39;100954.13;5080095;28;45256;-41
2022/12/20 00:40:22;;;;;;;;;3.33;3.33;;;;;20.03;35.66;100943.59;5076877;28;62775;-42
2022/12/20 00:42:47;;;;;;;;;2.00;2.00;;;;;19.99;35.38;100938.59;5061989;28;45453;-43
2022/12/20 00:45:13;;;;;;;;;3.50;3.50;;;;;20.01;35.88;100947.25;5056972;28;45428;-41
2022/12/20 00:47:38;;;;;;;;;3.00;3.00;;;;;19.99;36.07;100933.31;5057981;28;45241;-40
2022/12/20 00:50:04;;;;;;;;;4.00;4.00;;;;;20.00;35.66;100938.53;5056802;28;45535;-43
2022/12/20 00:52:29;;;;;;;;;5.00;3.50;;;;;19.99;35.90;100931.56;5056920;28;45820;-43
2022/12/20 00:54:55;;;;;;;;;4.00;4.00;;;;;19.99;35.87;100938.59;5062469;28;45295;-43
2022/12/20 00:57:20;;;;;;;;;3.00;3.00;;;;;19.98;35.99;100937.75;5059018;28;45249;-42
2022/12/20 00:59:45;;;;;;;;;4.00;2.33;;;;;19.94;35.93;100933.56;5056191;28;65067;-41
2022/12/20 01:02:10;;;;;;;;;3.75;3.75;;;;;19.96;35.70;100939.59;5056484;28;45355;-45
2022/12/20 01:04:36;;;;;;;;;2.50;2.50;;;;;19.94;35.58;100928.31;5055131;28;48832;-44
2022/12/20 01:07:01;;;;;;;;;5.00;3.00;;;;;19.93;35.77;100931.84;5059730;28;45223;-42
2022/12/20 01:09:27;;;;;;;;;3.25;3.00;;;;;19.91;35.79;100928.44;5060318;28;46541;-43
2022/12/20 01:11:52;;;;;;;;;3.00;3.00;;;;;19.88;35.58;100924.22;5066328;28;57416;-44
2022/12/20 01:14:17;;;;;;;;;5.00;3.00;;;;;19.91;36.18;100929.31;5056877;28;45284;-43
2022/12/20 01:16:45;;;;;;;;;4.00;3.00;;;;;19.90;35.73;100927.63;5056909;28;45544;-40
2022/12/20 01:19:16;;;;;;;;;3.00;3.00;;;;;19.91;35.56;100928.44;5056560;28;46182;-41
2022/12/20 01:21:45;;;;;;;;;4.00;4.00;;;;;19.89;35.98;100927.72;5057067;28;45277;-41
2022/12/20 01:24:18;;;;;;;;;4.50;3.75;;;;;19.86;36.21;100930.50;5062310;28;45369;-42
2022/12/20 01:26:45;;;;;;;;;3.75;3.75;;;;;19.87;36.21;100926.94;5065368;28;45341;-43
2022/12/20 01:29:11;;;;;;;;;3.00;3.00;;;;;19.85;35.66;100918.22;5066062;28;45307;-44
2022/12/20 01:31:36;;;;;;;;;2.50;2.50;;;;;19.85;35.77;100924.31;5057129;28;45383;-40
2022/12/20 01:34:02;;;;;;;;;5.25;3.00;;;;;19.85;35.87;100915.59;5056296;28;45376;-42
2022/12/20 01:36:32;;;;;;;;;3.00;3.00;;;;;19.82;35.76;100913.97;5056633;28;45338;-43
2022/12/20 01:39:05;;;;;;;;;3.50;3.50;;;;;19.83;36.01;100912.19;5058861;28;46283;-42
2022/12/20 01:41:31;;;;;;;;;5.00;4.00;;;;;19.83;36.17;100914.81;5059458;28;45971;-41
2022/12/20 01:44:00;;;;;;;;;4.00;4.00;;;;;19.82;35.88;100923.63;5059663;28;45442;-43
2022/12/20 01:46:28;;;;;;;;;3.25;3.25;;;;;19.82;35.81;100927.13;5062594;28;45564;-42
2022/12/20 01:49:20;;;;;;;;;3.00;3.00;;;;;19.79;35.97;100908.88;5066617;28;45667;-40
2022/12/20 01:51:51;;;;;;;;;3.50;3.00;;;;;19.80;35.91;100907.06;5066703;28;45410;-40
2022/12/20 01:54:25;;;;;;;;;5.00;4.00;;;;;19.77;36.33;100913.34;5059707;28;45394;-40
2022/12/20 01:56:55;;;;;;;;;3.00;3.00;;;;;19.77;35.83;100905.47;5059807;28;45227;-41
2022/12/20 01:59:21;;;;;;;;;3.00;3.00;;;;;19.77;36.36;100914.22;5059698;28;46401;-40
2022/12/20 02:01:46;;;;;;;;;3.00;2.75;;;;;19.75;36.40;100902.91;5059524;28;45280;-42
2022/12/20 02:04:15;;;;;;;;;5.00;3.00;;;;;19.75;36.19;100904.69;5059874;28;45355;-40
2022/12/20 02:06:41;;;;;;;;;5.50;3.75;;;;;19.75;36.40;100907.31;5059325;28;45190;-41
2022/12/20 02:09:07;;;;;;;;;4.50;3.00;;;;;19.73;35.94;100917.91;5079564;28;46675;-42
2022/12/20 02:11:59;;;;;;;;;2.50;2.00;;;;;19.74;36.41;100921.38;5082541;28;45139;-41
2022/12/20 02:14:40;;;;;;;;;3.25;2.50;;;;;19.73;36.48;100922.34;5082202;28;45361;-42
2022/12/20 02:17:16;;;;;;;;;1.75;1.75;;;;;19.72;36.49;100924.09;5067014;28;45390;-45
2022/12/20 02:20:19;;;;;;;;;5.00;3.00;;;;;19.71;36.14;100909.25;5065981;28;45496;-44
2022/12/20 02:22:47;;;;;;;;;2.75;2.75;;;;;19.69;36.47;100908.47;5060396;28;45414;-43
2022/12/20 02:25:35;;;;;;;;;3.00;2.00;;;;;19.69;36.14;100919.00;5057777;28;45307;-44
2022/12/20 02:28:37;;;;;;;;;6.00;3.00;;;;;19.67;36.11;100915.63;5059385;28;45237;-42
2022/12/20 02:31:08;;;;;;;;;5.00;3.25;;;;;19.67;35.98;100915.63;5058899;28;46422;-42
2022/12/20 02:33:33;;;;;;;;;4.50;4.00;;;;;19.66;36.45;100913.03;5059318;28;45862;-40
2022/12/20 02:35:59;;;;;;;;;2.50;2.50;;;;;19.67;36.30;100915.63;5059096;28;45424;-43
2022/12/20 02:38:29;;;;;;;;;3.75;2.75;;;;;19.67;36.12;100905.09;5059788;28;45381;-42
2022/12/20 02:41:03;;;;;;;;;6.00;3.00;;;;;19.66;36.16;100911.28;5068879;27;45619;-42
2022/12/20 02:46:19;;;;;;;;;3.50;3.00;;;;;19.67;36.66;100910.34;5066333;28;45219;-42
2022/12/20 02:48:47;;;;;;;;;3.00;3.00;;;;;19.64;36.51;100900.00;5060656;28;45430;-40
2022/12/20 02:51:16;;;;;;;;;2.00;2.00;;;;;19.65;36.19;100901.69;5058435;28;45436;-44
2022/12/20 02:53:41;;;;;;;;;3.00;3.00;;;;;19.63;36.52;100888.59;5058611;28;45826;-43
2022/12/20 02:56:23;;;;;;;;;4.00;3.00;;;;;19.64;36.56;100873.69;5058604;28;45377;-40
2022/12/20 02:58:54;;;;;;;;;6.25;3.00;;;;;19.63;36.68;100869.34;5059111;28;45419;-43
2022/12/20 03:01:29;;;;;;;;;3.00;3.00;;;;;19.61;36.48;100877.34;5058704;28;45682;-42
2022/12/20 03:03:56;;;;;;;;;3.00;3.00;;;;;19.62;36.33;100863.22;5059090;28;45452;-41
2022/12/20 03:06:22;;;;;;;;;3.25;3.00;;;;;19.60;36.93;100864.25;5059235;28;45394;-42
2022/12/20 03:08:47;;;;;;;;;3.00;3.00;;;;;19.62;36.24;100865.88;5059324;28;45700;-42
2022/12/20 03:11:13;;;;;;;;;2.25;2.25;;;;;19.60;36.31;100861.63;5059512;28;45944;-41
2022/12/20 03:13:38;;;;;;;;;3.75;3.50;;;;;19.62;36.88;100865.03;5062366;28;45264;-42
2022/12/20 03:16:04;;;;;;;;;3.00;3.00;;;;;19.61;36.34;100858.94;5063415;28;45365;-43
2022/12/20 03:18:29;;;;;;;;;3.25;2.25;;;;;19.61;36.73;100856.31;5060794;28;45399;-40
2022/12/20 03:20:55;;;;;;;;;5.00;2.00;;;;;19.60;36.74;100861.63;5063615;28;46290;-42
2022/12/20 03:23:20;;;;;;;;;3.00;3.00;;;;;19.61;36.34;100868.59;5064003;28;45332;-42
2022/12/20 03:25:46;;;;;;;;;3.00;2.00;;;;;19.59;36.50;100870.44;5067427;28;45424;-40
2022/12/20 03:28:12;;;;;;;;;5.00;4.00;;;;;19.61;36.79;100868.59;5074740;28;44802;-41
2022/12/20 03:30:37;;;;;;;;;3.50;2.75;;;;;19.59;36.32;100860.78;5074487;28;46466;-41
2022/12/20 03:33:02;;;;;;;;;2.00;2.00;;;;;19.62;36.51;100854.50;5074309;28;45170;-41
2022/12/20 03:35:28;;;;;;;;;2.00;2.00;;;;;19.63;36.62;100851.78;5075378;28;45798;-43
2022/12/20 03:37:55;;;;;;;;;3.75;2.25;;;;;19.68;36.92;100850.72;5075419;28;45160;-42
2022/12/20 03:40:20;;;;;;;;;2.00;2.00;;;;;19.70;36.54;100856.75;5078500;28;46699;-44
2022/12/20 03:42:46;;;;;;;;;3.00;3.00;;;;;19.76;36.57;100867.81;5070430;28;45333;-45
2022/12/20 03:45:11;;;;;;;;;3.00;3.00;;;;;19.82;36.91;100861.38;5075995;28;47011;-46
2022/12/20 03:47:37;;;;;;;;;2.50;2.50;;;;;19.88;36.56;100860.25;5077691;28;44888;-43
2022/12/20 03:50:03;;;;;;;;;2.00;2.00;;;;;19.93;36.52;100861.69;5077326;28;45494;-42
2022/12/20 03:52:28;;;;;;;;;3.00;3.00;;;;;19.99;36.70;100863.16;5062094;28;45467;-41
2022/12/20 03:54:53;;;;;;;;;2.00;2.00;;;;;20.02;36.36;100849.81;5058906;28;45375;-42
2022/12/20 03:57:19;;;;;;;;;2.00;2.00;;;;;20.10;36.79;100853.84;5058593;28;45586;-43
2022/12/20 03:59:44;;;;;;;;;1.50;1.50;;;;;20.13;36.68;100845.78;5059001;28;62899;-43
2022/12/20 04:02:10;;;;;;;;;3.00;3.00;;;;;20.18;36.62;100843.75;5061354;28;45357;-40
2022/12/20 04:04:35;;;;;;;;;2.50;2.50;;;;;20.22;36.39;100850.56;5064488;28;45239;-40
2022/12/20 04:07:01;;;;;;;;;2.00;2.00;;;;;20.28;35.95;100852.84;5066304;28;45302;-43
2022/12/20 04:09:26;;;;;;;;;2.75;2.50;;;;;20.30;36.59;100840.47;5071834;28;54912;-41
2022/12/20 04:11:51;;;;;;;;;4.50;4.50;;;;;20.34;36.21;100836.72;5065127;28;45197;-44
2022/12/20 04:14:17;;;;;;;;;2.00;2.00;;;;;20.37;36.58;100828.66;5064633;28;47155;-40
2022/12/20 04:16:42;;;;;;;;;2.00;2.00;;;;;20.40;36.35;100827.63;5061376;28;45335;-40
2022/12/20 04:19:07;;;;;;;;;3.25;2.00;;;;;20.44;36.25;100826.53;5059504;28;47550;-43
2022/12/20 04:21:34;;;;;;;;;2.75;2.75;;;;;20.46;35.81;100815.91;5063245;28;56984;-42
2022/12/20 04:24:01;;;;;;;;;2.00;2.00;;;;;20.50;35.96;100820.09;5065561;28;45340;-41
2022/12/20 04:26:27;;;;;;;;;3.00;2.00;;;;;20.53;35.95;100809.41;5073035;28;45258;-41
2022/12/20 04:28:52;;;;;;;;;3.50;2.00;;;;;20.55;36.15;100818.91;5071617;28;46375;-41
2022/12/20 04:31:17;;;;;;;;;2.00;2.00;;;;;20.57;35.84;100810.91;5064975;28;53401;-40
2022/12/20 04:33:44;;;;;;;;;2.00;2.00;;;;;20.62;36.41;100808.00;5066796;28;45405;-42
2022/12/20 04:36:09;;;;;;;;;2.00;2.00;;;;;20.63;36.05;100810.56;5073062;28;45541;-44
2022/12/20 04:38:35;;;;;;;;;1.00;1.00;;;;;20.66;35.96;100813.03;5058868;28;46424;-43
2022/12/20 04:41:00;;;;;;;;;3.25;2.25;;;;;20.67;36.46;100809.44;5057360;28;45308;-43
2022/12/20 04:43:25;;;;;;;;;3.75;2.00;;;;;20.66;36.02;100806.91;5063393;28;45313;-43
2022/12/20 04:45:55;;;;;;;;;3.00;3.00;;;;;20.72;36.01;100810.97;5061123;28;45390;-42
2022/12/20 04:48:21;;;;;;;;;2.00;2.00;;;;;20.73;36.43;100813.53;5057040;28;46932;-42
2022/12/20 04:50:50;;;;;;;;;4.25;2.00;;;;;20.76;36.44;100809.91;5057280;28;45326;-40
2022/12/20 04:55:59;;;;;;;;;2.50;2.00;;;;;20.77;36.50;100807.19;5060939;28;45340;-43
2022/12/20 04:58:25;;;;;;;;;3.00;3.00;;;;;20.77;36.51;100809.81;5057183;28;45622;-44
2022/12/20 05:00:53;;;;;;;;;5.25;2.25;;;;;20.77;35.95;100809.00;5056800;28;45279;-43
2022/12/20 05:03:19;;;;;;;;;3.00;3.00;;;;;20.77;36.06;100812.47;5060170;28;45378;-41
2022/12/20 05:05:45;;;;;;;;;4.00;3.00;;;;;20.78;36.00;100826.50;5064477;28;45453;-42
2022/12/20 05:08:10;;;;;;;;;4.50;2.25;;;;;20.75;36.25;100800.31;5062278;28;50495;-41
2022/12/20 05:10:36;;;;;;;;;5.00;3.00;;;;;20.77;36.44;100801.09;5057574;28;45396;-41
2022/12/20 05:13:01;;;;;;;;;5.25;3.75;;;;;20.76;36.25;100789.69;5069105;28;45366;-42
2022/12/20 05:15:26;;;;;;;;;3.25;3.25;;;;;20.76;36.05;100783.59;5077723;28;45714;-41
2022/12/20 05:17:58;;;;;;;;;2.50;2.50;;;;;20.77;35.97;100780.00;5067564;28;45481;-42
2022/12/20 05:20:23;;;;;;;;;4.00;2.75;;;;;20.78;35.88;100785.19;5074780;28;45177;-42
2022/12/20 05:28:34;;;;;;;;;2.75;2.75;;;;;20.77;36.26;100777.38;5005901;28;45974;-43
2022/12/20 05:31:00;;;;;;;;;4.50;3.00;;;;;20.75;35.88;100779.25;5051704;28;45310;-41
2022/12/20 05:33:26;;;;;;;;;2.25;2.25;;;;;20.76;36.34;100773.03;5067860;28;45352;-43
2022/12/20 05:35:53;;;;;;;;;2.00;2.00;;;;;20.78;36.32;100779.06;5068760;28;45219;-43
2022/12/20 05:38:18;;;;;;;;;2.00;2.00;;;;;20.75;36.33;100781.88;5068322;28;46594;-42
2022/12/20 05:40:47;;;;;;;;;2.25;2.25;;;;;20.77;35.84;100785.28;5075749;28;45211;-41
2022/12/20 05:43:12;;;;;;;;;3.25;2.50;;;;;20.76;36.40;100786.22;5074010;28;45401;-41
2022/12/20 05:45:37;;;;;;;;;2.75;2.75;;;;;20.75;35.88;100789.78;5073010;28;45412;-42
2022/12/20 05:48:03;;;;;;;;;3.25;2.00;;;;;20.74;35.99;100788.03;5072132;28;46385;-44
2022/12/20 05:50:28;;;;;;;;;3.00;3.00;;;;;20.75;36.06;100776.59;5074954;28;45145;-44
2022/12/20 05:52:54;;;;;;;;;4.00;2.25;;;;;20.73;35.82;100779.28;5062597;28;45411;-42
2022/12/20 05:55:19;;;;;;;;;2.25;2.25;;;;;20.73;36.01;100781.09;5059579;28;45440;-42
2022/12/20 05:57:44;;;;;;;;;2.25;2.25;;;;;20.72;36.25;100782.88;5075256;28;46504;-41
2022/12/20 06:00:13;;;;;;;;;2.75;2.00;;;;;20.71;36.34;100783.81;5068671;28;45322;-40
2022/12/20 06:02:39;;;;;;;;;3.00;2.00;;;;;20.71;35.94;100773.28;5067256;28;45298;-42
2022/12/20 06:05:04;;;;;;;;;3.00;2.00;;;;;20.68;36.14;100769.00;5059278;28;54655;-42
2022/12/20 06:07:30;;;;;;;;;4.25;2.00;;;;;20.68;36.11;100769.00;5058980;28;46431;-41
2022/12/20 06:09:56;;;;;;;;;3.00;3.00;;;;;20.69;36.05;100788.31;5059017;28;45354;-41
2022/12/20 06:12:21;;;;;;;;;2.75;2.00;;;;;20.68;36.17;100783.97;5059147;28;45327;-42
2022/12/20 06:14:47;;;;;;;;;3.25;3.00;;;;;20.66;36.26;100784.06;5059508;28;45559;-40
2022/12/20 06:17:12;;;;;;;;;3.00;3.00;;;;;20.65;36.03;100798.19;5059238;28;46456;-41
2022/12/20 06:19:41;;;;;;;;;2.50;1.75;;;;;20.65;36.44;100792.91;5074617;28;45301;-42
2022/12/20 06:22:07;;;;;;;;;2.00;2.00;;;;;20.64;36.27;100796.47;5059865;28;45484;-41
2022/12/20 06:24:33;;;;;;;;;2.00;2.00;;;;;20.64;36.29;100791.22;5065954;28;45299;-43
2022/12/20 06:26:58;;;;;;;;;2.00;2.00;;;;;20.62;36.33;100779.03;5082298;28;46500;-42
2022/12/20 06:29:24;;;;;;;;;1.00;1.00;;;;;20.61;36.02;100780.84;5085176;28;44647;-44
2022/12/20 06:31:49;;;;;;;;;2.25;2.25;;;;;20.60;36.13;100789.66;5085224;28;45778;-42
2022/12/20 06:34:16;;;;;;;;;1.00;1.00;;;;;20.60;36.64;100787.03;5072523;28;45299;-41
2022/12/20 06:36:41;;;;;;;;;2.00;2.00;;;;;20.59;36.38;100787.97;5061587;28;45560;-48
2022/12/20 06:39:08;;;;;;;;;2.00;2.00;;;;;20.59;35.94;100780.06;5059120;28;49142;-41
2022/12/20 06:41:34;;;;;;;;;3.00;2.00;;;;;20.58;36.32;100781.00;5059246;28;45435;-43
2022/12/20 06:43:59;;;;;;;;;2.00;2.00;;;;;20.54;36.55;100780.34;5058992;28;45439;-43
2022/12/20 06:46:26;;;;;;;;;2.00;2.00;;;;;20.55;36.22;100778.56;5058198;28;52094;-41
2022/12/20 06:48:51;;;;;;;;;2.00;1.50;;;;;20.54;36.31;100782.97;5058342;28;45847;-41
2022/12/20 06:51:16;;;;;;;;;2.00;2.00;;;;;20.53;36.88;100777.81;5058687;28;45404;-45
2022/12/20 06:53:42;;;;;;;;;1.25;1.25;;;;;20.52;36.50;100781.38;5058631;28;45231;-42
2022/12/20 06:56:07;;;;;;;;;1.00;1.00;;;;;20.52;36.77;100781.38;5064869;28;46834;-41
2022/12/20 06:58:32;;;;;;;;;1.25;1.25;;;;;20.49;36.69;100777.13;5062406;28;45239;-42
2022/12/20 07:00:58;;;;;;;;;2.00;2.00;;;;;20.48;36.57;100769.28;5058649;28;48209;-41
2022/12/20 07:03:23;;;;;;;;;1.00;1.00;;;;;20.49;36.58;100776.25;5058217;28;45445;-42
2022/12/20 07:05:53;;;;;;;;;2.00;1.75;;;;;20.48;36.67;100779.81;5057856;28;46226;-42
2022/12/20 07:08:19;;;;;;;;;2.50;1.00;;;;;20.45;36.66;100782.66;5057903;28;45326;-42
2022/12/20 07:10:44;;;;;;;;;2.00;1.25;;;;;20.44;36.42;100783.59;5058373;28;45478;-41
2022/12/20 07:13:10;;;;;;;;;2.00;2.00;;;;;20.44;36.62;100784.41;5056728;28;45360;-42
2022/12/20 07:15:35;;;;;;;;;2.00;2.00;;;;;20.42;36.64;100788.91;5058294;28;45449;-40
2022/12/20 07:18:01;;;;;;;;;3.00;1.50;;;;;20.41;36.67;100784.59;5057927;28;45283;-43
2022/12/20 07:20:27;;;;;;;;;3.00;2.00;;;;;20.39;36.78;100779.41;5058185;28;45380;-41
2022/12/20 07:22:52;;;;;;;;;3.00;1.50;;;;;20.39;36.56;100779.41;5061253;28;45322;-43
2022/12/20 07:25:18;;;;;;;;;1.00;1.00;;;;;20.39;36.78;100781.22;5064711;28;45305;-43
2022/12/20 07:27:47;;;;;;;;;1.50;1.50;;;;;20.37;36.93;100786.53;5058149;28;45462;-41
2022/12/20 07:30:13;;;;;;;;;1.50;1.50;;;;;20.35;36.84;100783.13;5057862;28;45384;-41
2022/12/20 07:32:38;;;;;;;;;1.00;1.00;;;;;20.33;36.91;100779.78;5058281;28;45279;-41
2022/12/20 07:35:04;;;;;;;;;1.25;1.25;;;;;20.32;37.41;100775.44;5056702;28;50026;-41
2022/12/20 07:37:30;;;;;;;;;2.00;2.00;;;;;20.30;36.94;100771.16;5057611;28;45280;-43
2022/12/20 07:39:55;;;;;;;;;1.75;1.75;;;;;20.28;36.76;100776.53;5057988;28;45181;-41
2022/12/20 07:42:21;;;;;;;;;1.00;1.00;;;;;20.26;37.25;100774.91;5058621;28;45573;-41
2022/12/20 07:44:46;;;;;;;;;1.75;1.75;;;;;20.27;36.69;100784.53;5060915;28;45839;-40
2022/12/20 07:47:12;;;;;;;;;1.00;1.00;;;;;20.26;37.42;100783.66;5073869;28;45378;-42
2022/12/20 07:49:37;;;;;;;;;2.00;1.50;;;;;20.25;37.17;100784.59;5067465;28;45310;-41
2022/12/20 07:52:05;;;;;;;;;3.00;2.00;;;;;20.24;36.92;100788.16;5064029;28;45401;-43
2022/12/20 07:54:34;;;;;;;;;1.00;1.00;;;;;20.22;37.38;100785.59;5059783;28;45395;-43
2022/12/20 07:57:08;;;;;;;;;1.00;1.00;;;;;20.23;37.46;100786.44;5057584;28;45832;-42
2022/12/20 07:59:40;;;;;;;;;1.00;1.00;;;;;20.24;37.33;100785.50;5057339;28;45367;-42
2022/12/20 08:02:10;;;;;;;;;2.75;1.25;;;;;20.27;37.04;100785.34;5057592;28;45450;-41
2022/12/20 08:04:36;;;;;;;;;2.00;2.00;;;;;20.29;37.60;100785.25;5055812;28;48129;-42
2022/12/20 08:07:02;;;;;;;;;2.75;1.00;;;;;20.33;37.60;100786.81;5057118;28;45694;-41
2022/12/20 08:09:30;;;;;;;;;1.00;1.00;;;;;20.36;37.46;100791.91;5057134;28;45234;-41
2022/12/20 08:11:58;;;;;;;;;2.25;2.00;;;;;20.39;37.29;100794.38;5057501;28;45520;-46
2022/12/20 08:14:23;;;;;;;;;2.50;1.00;;;;;20.43;37.69;100792.41;5055940;28;45869;-43
2022/12/20 08:16:49;;;;;;;;;2.75;1.00;;;;;20.44;37.43;100783.59;5058042;28;45290;-44
2022/12/20 08:19:15;;;;;;;;;2.00;1.75;;;;;20.46;38.31;100790.47;5059694;28;45315;-40
2022/12/20 08:21:40;;;;;;;;;2.00;2.00;;;;;20.48;38.76;100788.59;5068195;28;45535;-43
2022/12/20 08:24:07;;;;;;;;;3.50;1.50;;;;;20.54;39.03;100797.94;5102011;28;49185;-63
2022/12/20 08:26:39;;;;;;;;;2.75;2.00;;;;;20.55;38.95;100792.56;5094097;28;45729;-42
2022/12/20 08:29:05;;;;;;;;;2.00;2.00;;;;;20.55;39.96;100783.84;5077192;27;45430;-42
2022/12/20 08:31:30;;;;;;;;;2.00;2.00;;;;;20.59;39.74;100784.50;5077328;27;45585;-39
2022/12/20 08:33:56;;;;;;;;;1.75;1.75;;;;;20.62;40.04;100787.81;5075745;28;47045;-41
2022/12/20 08:36:21;;;;;;;;;2.50;2.50;;;;;20.64;40.02;100782.44;5077013;27;50475;-40
2022/12/20 08:38:46;;;;;;;;;1.75;1.75;;;;;20.70;40.28;100790.00;5077343;28;45333;-41
2022/12/20 08:41:14;;;;;;;;;2.00;2.00;;;;;20.75;40.18;100782.72;5076319;28;45198;-41
2022/12/20 08:43:40;;;;;;;;;3.00;2.00;;;;;20.83;40.60;100788.41;5078740;27;47373;-40
2022/12/20 08:46:07;;;;;;;;;3.25;2.00;;;;;20.88;40.27;100774.13;5080592;27;45349;-38
2022/12/20 08:48:33;;;;;;;;;1.75;1.75;;;;;20.98;40.27;100789.31;5089358;27;44797;-39
2022/12/20 08:51:00;;;;;;;;;2.25;2.25;;;;;21.04;39.91;100793.38;5090092;27;45236;-39
2022/12/20 08:53:28;;;;;;;;;2.00;2.00;;;;;21.08;39.82;100788.78;5078117;27;45393;-41
2022/12/20 08:55:53;;;;;;;;;2.00;1.00;;;;;21.12;39.78;100785.00;5077902;27;45658;-42
2022/12/20 08:58:20;;;;;;;;;2.00;2.00;;;;;21.15;39.77;100790.09;5077736;27;45344;-41
2022/12/20 09:00:45;;;;;;;;;1.25;1.00;;;;;21.20;39.63;100787.19;5077709;27;45415;-40
2022/12/20 09:03:12;;;;;;;;;3.00;2.00;;;;;21.23;39.82;100787.84;5077714;27;46099;-40
2022/12/20 09:05:47;;;;;;;;;1.75;1.75;;;;;21.28;39.57;100795.47;5077173;27;45852;-40
2022/12/20 09:08:14;;;;;;;;;2.00;2.00;;;;;21.30;39.63;100794.47;5077931;28;45360;-40
2022/12/20 09:10:39;;;;;;;;;1.75;1.75;;;;;21.31;39.19;100785.63;5072466;27;45563;-38
2022/12/20 09:13:04;;;;;;;;;2.00;2.00;;;;;21.37;39.76;100802.00;5071921;27;46766;-40
2022/12/20 09:15:30;;;;;;;;;3.00;1.25;;;;;21.43;39.27;100791.13;5077966;28;48948;-40
2022/12/20 09:17:56;;;;;;;;;1.75;1.75;;;;;21.48;39.67;100802.22;5080711;28;45473;-42
2022/12/20 09:20:22;;;;;;;;;2.75;1.00;;;;;21.52;39.73;100798.47;5076889;27;45199;-40
2022/12/20 09:22:47;;;;;;;;;2.00;2.00;;;;;21.55;39.40;100792.97;5076743;27;46533;-38
2022/12/20 09:25:13;;;;;;;;;2.33;2.00;;;;;21.58;39.64;100800.72;5079309;28;62605;-39
2022/12/20 09:27:38;;;;;;;;;1.75;1.75;;;;;21.61;39.61;100800.56;5081766;27;45282;-40
2022/12/20 09:30:04;;;;;;;;;1.50;1.00;;;;;21.62;39.31;100798.78;5080046;27;45297;-38
2022/12/20 09:32:29;;;;;;;;;1.00;1.00;;;;;21.65;39.18;100803.88;5078116;27;46363;-40
2022/12/20 09:34:54;;;;;;;;;2.00;2.00;;;;;21.66;39.24;100807.38;5076403;28;53795;-39
2022/12/20 09:37:20;;;;;;;;;1.33;0.00;;;;;21.66;39.33;100788.91;5076982;28;51985;-39
2022/12/20 09:39:49;;;;;;;;;1.25;1.25;;;;;21.66;39.05;100791.53;5078343;28;54713;-40
2022/12/20 09:42:15;;;;;;;;;3.00;3.00;;;;;21.67;39.07;100790.56;5081534;27;46250;-41
2022/12/20 09:44:41;;;;;;;;;4.50;2.00;;;;;21.69;38.64;100793.97;5083595;27;45239;-40
2022/12/20 09:47:16;;;;;;;;;2.75;1.50;;;;;21.71;38.96;100800.00;5078247;28;45241;-37
2022/12/20 09:49:45;;;;;;;;;2.25;2.00;;;;;21.67;38.87;100802.00;5077147;27;45400;-38
2022/12/20 09:52:29;;;;;;;;;1.00;1.00;;;;;21.66;39.09;100800.28;5076897;27;46237;-41
2022/12/20 09:54:55;;;;;;;;;2.00;1.25;;;;;21.60;38.96;100788.31;5077112;28;45386;-36
2022/12/20 09:57:29;;;;;;;;;3.67;2.33;;;;;21.61;38.52;100789.16;5077062;28;45569;-38
2022/12/20 09:59:57;;;;;;;;;1.25;1.25;;;;;21.57;38.14;100780.56;5080037;27;45224;-37
2022/12/20 10:02:24;;;;;;;;;3.00;1.50;;;;;21.51;38.34;100778.31;5079939;28;49703;-41
2022/12/20 10:04:51;;;;;;;;;1.75;1.75;;;;;21.49;38.51;100785.47;5080406;28;45321;-36
2022/12/20 10:07:42;;;;;;;;;4.25;2.00;;;;;21.44;38.23;100785.72;5083426;27;45323;-36
2022/12/20 10:10:32;;;;;;;;;1.00;1.00;;;;;21.37;38.05;100780.91;5082555;27;45346;-38
2022/12/20 10:13:13;;;;;;;;;0.00;0.00;;;;;21.34;38.16;100774.03;5088455;28;45362;-37
2022/12/20 10:15:49;;;;;;;;;1.25;1.25;;;;;21.32;38.54;100781.19;5080912;28;45398;-36
2022/12/20 10:18:27;;;;;;;;;1.00;1.00;;;;;21.30;38.57;100778.66;5093386;27;45710;-39
2022/12/20 10:21:07;;;;;;;;;3.00;1.50;;;;;21.29;38.31;100784.88;5097267;27;45374;-36
2022/12/20 10:23:42;;;;;;;;;2.00;2.00;;;;;21.31;38.29;100796.19;5080756;27;45434;-37
2022/12/20 10:26:10;;;;;;;;;0.75;0.75;;;;;21.31;38.53;100796.19;5080198;27;45416;-37
2022/12/20 10:28:36;;;;;;;;;1.75;1.75;;;;;21.31;38.58;100793.53;5079560;27;45553;-38
2022/12/20 10:31:05;;;;;;;;;1.50;1.00;;;;;21.33;38.06;100779.41;5080625;27;45429;-40
2022/12/20 10:33:31;;;;;;;;;2.00;2.00;;;;;21.36;37.97;100776.56;5080496;27;45443;-40
2022/12/20 10:36:25;;;;;;;;;4.50;0.75;;;;;21.35;38.36;100764.34;5080253;28;45829;-44
2022/12/20 10:38:56;;;;;;;;;1.75;1.75;;;;;21.38;37.89;100762.38;5081165;27;45349;-39
2022/12/20 10:41:32;;;;;;;;;2.25;1.00;;;;;21.39;37.95;100761.41;5084327;27;45238;-41
2022/12/20 10:44:13;;;;;;;;;1.00;1.00;;;;;21.38;38.26;100748.34;5081631;27;46753;-39
2022/12/20 10:46:41;;;;;;;;;1.50;0.00;;;;;21.41;37.68;100753.44;5100760;27;44975;-41
2022/12/20 10:49:24;;;;;;;;;1.00;1.00;;;;;21.42;37.76;100768.31;5104552;27;45874;-40
2022/12/20 10:51:55;;;;;;;;;1.25;1.25;;;;;21.43;37.92;100767.38;5104901;28;44833;-40
2022/12/20 10:54:29;;;;;;;;;1.50;1.00;;;;;21.44;37.85;100766.44;5088693;27;45808;-39
2022/12/20 10:56:57;;;;;;;;;1.50;1.50;;;;;21.45;37.78;100773.38;5086556;27;45427;-42
2022/12/20 10:59:36;;;;;;;;;1.75;1.00;;;;;21.45;37.39;100770.75;5087626;27;45428;-42
2022/12/20 11:02:29;;;;;;;;;1.00;1.00;;;;;21.47;37.89;100763.59;5079405;27;45358;-45
2022/12/20 11:04:57;;;;;;;;;3.50;2.00;;;;;21.48;37.65;100767.94;5079149;27;45344;-41
2022/12/20 11:07:26;;;;;;;;;3.00;1.00;;;;;21.44;37.52;100756.72;5080195;27;45370;-39
2022/12/20 11:09:55;;;;;;;;;2.00;1.00;;;;;21.49;37.62;100756.44;5078600;27;45389;-41
2022/12/20 11:12:21;;;;;;;;;2.25;1.75;;;;;21.47;37.25;100747.78;5079165;27;45549;-46
2022/12/20 11:14:48;;;;;;;;;1.00;1.00;;;;;21.48;37.63;100752.13;5078227;27;45823;-36
2022/12/20 11:17:13;;;;;;;;;1.00;1.00;;;;;21.51;37.28;100759.84;5078125;27;45728;-40
2022/12/20 11:20:15;;;;;;;;;1.00;1.00;;;;;21.51;37.64;100744.03;5078429;28;45430;-42
2022/12/20 11:23:00;;;;;;;;;2.25;1.50;;;;;21.52;37.69;100742.22;5078389;27;45341;-39
2022/12/20 11:26:20;;;;;;;;;2.00;1.00;;;;;21.53;37.18;100747.41;5078147;27;45326;-43
2022/12/20 11:29:19;;;;;;;;;2.00;1.00;;;;;21.55;37.57;100761.34;5015371;28;45492;-50
2022/12/20 11:32:15;;;;;;;;;1.00;1.00;;;;;21.55;37.08;100749.94;5077134;28;45319;-40
2022/12/20 11:35:10;;;;;;;;;1.00;1.00;;;;;21.54;37.46;100749.13;5083720;28;45433;-40
2022/12/20 11:37:48;;;;;;;;;2.00;2.00;;;;;21.54;37.24;100751.75;5082288;27;45269;-49
2022/12/20 11:40:43;;;;;;;;;2.00;2.00;;;;;21.54;36.96;100745.63;5077905;27;45770;-39
2022/12/20 11:43:40;;;;;;;;;2.25;2.25;;;;;21.54;37.07;100743.84;5077996;27;45215;-51